Terminal Aerodrome Forecast
Issued by NWS

Home | Current Version | Previous Version | Text Only | Print | Product List | Glossary On
Versions: 1 2 3 4 5 6 7 8 9 10 11 12 13 14 15 16 17
000
FTUS42 KTAE 262300
TAFABY
TAF
KABY 262322Z 2700/2724 29005KT P6SM BKN040
      TEMPO 2700/2702 32012KT
     FM271500 30011G20KT P6SM SCT040=

USA.gov is the U.S. government's official web portal to all federal, state and local government web resources and services.